createdAt,value
2022-10-13T00:06:51.218Z,71.74
2022-10-13T00:15:14.482Z,71.61
2022-10-13T00:23:38.956Z,71.60
2022-10-13T00:32:02.460Z,71.62
2022-10-13T00:40:25.413Z,71.68
2022-10-13T00:48:50.351Z,71.44
2022-10-13T00:57:13.610Z,71.46
2022-10-13T01:05:36.799Z,71.60
2022-10-13T01:14:25.159Z,71.63
2022-10-13T01:23:26.206Z,71.68
2022-10-13T01:32:09.489Z,71.69
2022-10-13T01:41:02.391Z,71.47
2022-10-13T01:49:29.789Z,71.67
2022-10-13T01:57:53.892Z,71.48
2022-10-13T02:06:33.277Z,71.67
2022-10-13T02:14:59.795Z,71.58
2022-10-13T02:23:23.541Z,71.50
2022-10-13T02:31:47.054Z,71.65
2022-10-13T02:40:10.973Z,71.56
2022-10-13T02:48:36.274Z,71.52
2022-10-13T02:56:59.085Z,71.42
2022-10-13T03:05:24.470Z,71.59
2022-10-13T03:13:47.528Z,71.58
2022-10-13T03:22:14.673Z,71.56
2022-10-13T03:30:37.949Z,71.67
2022-10-13T03:39:00.985Z,71.63
2022-10-13T03:47:24.056Z,71.53
2022-10-13T03:55:56.050Z,71.56
2022-10-13T04:04:18.999Z,71.72
2022-10-13T04:12:43.532Z,71.50
2022-10-13T04:21:11.786Z,71.62
2022-10-13T04:29:35.221Z,71.57
2022-10-13T04:37:58.250Z,71.78
2022-10-13T04:46:26.882Z,71.68
2022-10-13T04:54:50.611Z,71.75
2022-10-13T05:03:13.536Z,71.72
2022-10-13T05:11:36.412Z,71.80
2022-10-13T05:19:59.238Z,71.87
2022-10-13T05:28:22.578Z,71.75
2022-10-13T05:36:45.478Z,71.91
2022-10-13T05:45:10.749Z,71.96
2022-10-13T05:53:37.801Z,71.91
2022-10-13T06:02:02.272Z,72.03
2022-10-13T06:10:26.392Z,72.26
2022-10-13T06:18:49.290Z,72.38
2022-10-13T06:27:12.372Z,72.58
2022-10-13T06:35:36.388Z,72.64
2022-10-13T06:43:59.242Z,72.89
2022-10-13T06:52:25.481Z,73.12
2022-10-13T07:00:48.535Z,73.64
2022-10-13T07:09:12.050Z,73.89
2022-10-13T07:17:35.263Z,74.12
2022-10-13T07:25:58.408Z,74.51
2022-10-13T07:34:22.780Z,74.73
2022-10-13T07:42:45.837Z,74.99
2022-10-13T07:51:12.738Z,75.33
2022-10-13T07:59:35.906Z,75.21
2022-10-13T08:07:58.898Z,75.30
2022-10-13T08:16:22.498Z,75.48
2022-10-13T08:24:45.499Z,75.41
2022-10-13T08:33:08.733Z,75.37
2022-10-13T08:41:37.865Z,75.43
2022-10-13T08:50:07.697Z,75.49
2022-10-13T08:58:34.820Z,75.47
2022-10-13T09:07:10.301Z,75.63
2022-10-13T09:15:43.316Z,75.51
2022-10-13T09:24:14.500Z,75.38
2022-10-13T09:32:39.058Z,75.43
2022-10-13T09:41:16.030Z,75.35
2022-10-13T09:49:42.803Z,75.41
2022-10-13T09:58:24.544Z,75.27
2022-10-13T10:06:47.818Z,75.40
2022-10-13T10:15:23.956Z,75.16
2022-10-13T10:23:52.109Z,75.40
2022-10-13T10:32:26.756Z,75.24
2022-10-13T10:41:21.667Z,75.09
2022-10-13T10:49:46.905Z,75.13
2022-10-13T10:58:17.482Z,75.01
2022-10-13T11:06:40.339Z,75.14
2022-10-13T11:15:11.276Z,75.18
2022-10-13T11:23:34.414Z,75.10
2022-10-13T11:31:57.582Z,75.06
2022-10-13T11:40:56.339Z,74.80
2022-10-13T11:49:42.258Z,74.85
2022-10-13T11:58:13.946Z,74.81
2022-10-13T12:06:37.529Z,74.83
2022-10-13T12:15:04.157Z,74.65
2022-10-13T12:23:33.395Z,74.60
2022-10-13T12:31:58.828Z,74.44
2022-10-13T12:40:23.098Z,74.45
2022-10-13T12:48:45.938Z,74.37
2022-10-13T12:57:35.444Z,74.44
2022-10-13T13:06:15.458Z,74.46
2022-10-13T13:14:39.501Z,74.32
2022-10-13T13:23:02.652Z,74.17
2022-10-13T13:31:26.469Z,74.17
2022-10-13T13:39:49.468Z,74.19
2022-10-13T13:48:13.276Z,74.13
2022-10-13T13:56:36.281Z,74.10
2022-10-13T14:04:59.835Z,74.06
2022-10-13T14:13:23.409Z,74.02
2022-10-13T14:21:46.709Z,73.92
2022-10-13T14:30:15.931Z,73.82
2022-10-13T14:38:39.029Z,73.76
2022-10-13T14:47:02.036Z,73.66
2022-10-13T14:55:25.057Z,73.64
2022-10-13T15:03:48.787Z,73.51
2022-10-13T15:12:12.083Z,73.38
2022-10-13T15:20:35.154Z,73.22
2022-10-13T15:28:59.282Z,73.15
2022-10-13T15:37:22.427Z,72.93
2022-10-13T15:45:59.823Z,73.09
2022-10-13T15:54:23.606Z,72.95
2022-10-13T16:02:50.624Z,72.78
2022-10-13T16:11:16.284Z,72.65
2022-10-13T16:19:39.360Z,72.55
2022-10-13T16:28:02.220Z,72.43
2022-10-13T16:36:25.533Z,72.27
2022-10-13T16:44:48.824Z,72.16
2022-10-13T16:53:11.716Z,72.01
2022-10-13T17:01:36.383Z,71.75
2022-10-13T17:09:59.209Z,71.89
2022-10-13T17:18:22.169Z,71.67
2022-10-13T17:26:45.039Z,71.66
2022-10-13T17:35:11.450Z,71.72
2022-10-13T17:43:34.992Z,71.57
2022-10-13T17:51:58.381Z,71.60
2022-10-13T18:00:21.255Z,71.27
2022-10-13T18:08:45.404Z,71.31
2022-10-13T18:17:08.334Z,71.37
2022-10-13T18:25:36.327Z,71.25
2022-10-13T18:34:03.504Z,71.45
2022-10-13T18:42:28.083Z,71.34
2022-10-13T18:50:51.281Z,71.27
2022-10-13T18:59:14.233Z,71.31
2022-10-13T19:07:39.202Z,71.19
2022-10-13T19:16:03.491Z,71.17
2022-10-13T19:24:26.401Z,71.11
2022-10-13T19:32:49.471Z,71.24
2022-10-13T19:41:12.402Z,70.94
2022-10-13T19:49:35.396Z,71.01
2022-10-13T19:57:58.509Z,70.96
2022-10-13T20:06:21.812Z,70.94
2022-10-13T20:14:45.098Z,71.02
2022-10-13T20:23:08.810Z,71.06
2022-10-13T20:31:35.780Z,71.03
2022-10-13T20:39:59.050Z,71.02
2022-10-13T20:48:21.997Z,71.13
2022-10-13T20:56:45.226Z,71.22
2022-10-13T21:05:08.776Z,71.20
2022-10-13T21:13:34.086Z,71.12
2022-10-13T21:21:57.455Z,70.94
2022-10-13T21:30:20.683Z,71.00
2022-10-13T21:38:45.760Z,71.09
2022-10-13T21:47:08.684Z,70.93
2022-10-13T21:55:33.294Z,70.96
2022-10-13T22:03:59.422Z,70.89
2022-10-13T22:12:22.362Z,71.01
2022-10-13T22:20:45.476Z,70.99
2022-10-13T22:29:09.883Z,70.88
2022-10-13T22:37:34.184Z,71.02
2022-10-13T22:45:57.035Z,71.09
2022-10-13T22:54:20.138Z,70.98
2022-10-13T23:02:43.132Z,70.99
2022-10-13T23:11:06.599Z,70.83
2022-10-13T23:19:30.062Z,70.99
2022-10-13T23:27:54.031Z,70.97
2022-10-13T23:36:20.193Z,70.95
2022-10-13T23:44:46.207Z,71.04
2022-10-13T23:53:09.175Z,71.02
